Weather reports worldwide

Advertisment
Pajala Airport, Sweden (2096): temperature & dewpoint: 27.05.2020 23:00:00 - 02.06.2020 23:00:00 (CEST)Pajala Airport, Sweden (2096): wind speed: 27.05.2020 23:00:00 - 02.06.2020 23:00:00 (CEST)Pajala Airport, Sweden (2096): wind direction: 27.05.2020 23:00:00 - 02.06.2020 23:00:00 (CEST)Pajala Airport, Sweden (2096): visibility: 27.05.2020 23:00:00 - 02.06.2020 23:00:00 (CEST)
Date & Time tt [°C] td [°C] ff [km/h] ff [kn] dd vv [km]
02.06.2020 23:00:00 14,0 5,0 5 3 NW 10
02.06.2020 22:00:00 16,0 4,0 8 4 NW 10
02.06.2020 21:00:00 17,0 4,0 11 6 NNW 10
02.06.2020 20:00:00 19,0 2,0 5 3 - 10
02.06.2020 19:00:00 19,0 2,0 13 7 NW 10
02.06.2020 18:00:00 20,0 2,0 13 7 NW 10
02.06.2020 17:00:00 21,0 3,0 22 12 WNW 10
02.06.2020 16:00:00 22,0 3,0 18 10 NW 10
02.06.2020 15:00:00 22,0 5,0 22 12 WNW 10
02.06.2020 14:00:00 23,0 7,0 15 8 WSW 10
02.06.2020 13:00:00 23,0 6,0 22 12 SSW 10
02.06.2020 12:00:00 22,0 6,0 22 12 SSW 10
02.06.2020 11:00:00 22,0 6,0 13 7 S 10
02.06.2020 10:00:00 - - - - - -
02.06.2020 09:00:00 19,0 6,0 13 7 S 10
02.06.2020 08:00:00 18,0 6,0 18 10 S 10
02.06.2020 07:00:00 18,0 5,0 15 8 SSW 10
02.06.2020 06:00:00 17,0 5,0 15 8 S 10
02.06.2020 05:00:00 15,0 6,0 11 6 S 10
02.06.2020 04:00:00 15,0 6,0 8 4 SW 10
02.06.2020 03:00:00 15,0 6,0 9 5 SSW 10
02.06.2020 02:00:00 15,0 6,0 18 10 SSW 10
02.06.2020 01:00:00 16,0 6,0 18 10 S 10
02.06.2020 00:00:00 17,0 7,0 13 7 S 10
01.06.2020 23:00:00 19,0 8,0 11 6 S 10
01.06.2020 22:00:00 21,0 7,0 9 5 SSE 10
01.06.2020 21:00:00 22,0 6,0 13 7 SE 10
01.06.2020 20:00:00 24,0 6,0 13 7 ESE 10
01.06.2020 19:00:00 25,0 5,0 8 4 SE 10
01.06.2020 18:00:00 25,0 6,0 5 3 S 10
01.06.2020 17:00:00 25,0 5,0 4 2 - 10
01.06.2020 16:00:00 25,0 6,0 9 5 NW 10
01.06.2020 15:00:00 24,0 5,0 8 4 - 10
01.06.2020 14:00:00 24,0 5,0 8 4 - 10
01.06.2020 13:00:00 23,0 5,0 8 4 WNW 10
01.06.2020 12:00:00 22,0 6,0 8 4 NNW 10
01.06.2020 11:00:00 20,0 5,0 8 4 - 10
01.06.2020 10:00:00 19,0 7,0 8 4 W 10
01.06.2020 09:00:00 18,0 6,0 2 1 - 10
01.06.2020 08:00:00 16,0 5,0 5 3 - 10
01.06.2020 07:00:00 14,0 5,0 8 4 WNW 10
01.06.2020 06:00:00 13,0 4,0 8 4 WNW 10
01.06.2020 05:00:00 11,0 6,0 5 3 W 10
01.06.2020 04:00:00 8,0 5,0 2 1 - 10
01.06.2020 03:00:00 6,0 4,0 2 1 - 10
01.06.2020 02:00:00 9,0 3,0 4 2 - 10
01.06.2020 01:00:00 9,0 5,0 0 0 N 10
01.06.2020 00:00:00 12,0 5,0 5 3 NNW 10
31.05.2020 23:00:00 15,0 3,0 11 6 NW 10
31.05.2020 22:00:00 17,0 2,0 13 7 NW 10
31.05.2020 21:00:00 19,0 1,0 11 6 NNW 10
31.05.2020 20:00:00 20,0 0,0 18 10 NNW 10
31.05.2020 19:00:00 20,0 1,0 13 7 NNW 10
31.05.2020 18:00:00 21,0 1,0 24 13 NW 10
31.05.2020 17:00:00 22,0 1,0 22 12 NNW 10
31.05.2020 16:00:00 23,0 3,0 22 12 NW 10
31.05.2020 15:00:00 22,0 6,0 21 11 NNW 10
31.05.2020 14:00:00 21,0 7,0 13 7 WNW 10
31.05.2020 13:00:00 21,0 7,0 9 5 NW 10
31.05.2020 12:00:00 20,0 7,0 13 7 WNW 10
31.05.2020 11:00:00 19,0 6,0 13 7 NW 10
31.05.2020 10:00:00 17,0 5,0 15 8 NW 10
31.05.2020 09:00:00 16,0 5,0 9 5 WNW 10
31.05.2020 08:00:00 14,0 4,0 11 6 W 10
31.05.2020 07:00:00 12,0 3,0 11 6 SW 10
31.05.2020 06:00:00 11,0 2,0 5 3 SW 10
31.05.2020 05:00:00 10,0 3,0 4 2 - 10
31.05.2020 04:00:00 9,0 3,0 4 2 SW 10
31.05.2020 03:00:00 9,0 2,0 0 0 N 10
31.05.2020 02:00:00 9,0 3,0 4 2 - 10
31.05.2020 01:00:00 10,0 1,0 0 0 N 10
31.05.2020 00:00:00 11,0 0,0 4 2 NNW 10
30.05.2020 23:00:00 11,0 0,0 8 4 N 10
30.05.2020 22:00:00 12,0 0,0 5 3 N 10
30.05.2020 21:00:00 12,0 0,0 9 5 N 10
30.05.2020 20:00:00 14,0 0,0 11 6 NNW 10
30.05.2020 19:00:00 14,0 0,0 15 8 NNW 10
30.05.2020 18:00:00 14,0 0,0 13 7 N 10
30.05.2020 17:00:00 15,0 -1,0 15 8 NNW 10
30.05.2020 16:00:00 15,0 0,0 13 7 N 10
30.05.2020 15:00:00 14,0 0,0 9 5 NW 10
30.05.2020 14:00:00 13,0 0,0 11 6 - 10
30.05.2020 13:00:00 13,0 0,0 11 6 NW 10
30.05.2020 12:00:00 12,0 0,0 18 10 NW 10
30.05.2020 11:00:00 12,0 1,0 13 7 NW 10
30.05.2020 10:00:00 11,0 1,0 9 5 - 10
30.05.2020 09:00:00 10,0 1,0 15 8 WNW 10
30.05.2020 08:00:00 10,0 1,0 11 6 NNW 10
30.05.2020 07:00:00 8,0 1,0 13 7 NNW 10
30.05.2020 06:00:00 7,0 2,0 13 7 NNW 10
30.05.2020 05:00:00 5,0 2,0 8 4 WNW 10
30.05.2020 04:00:00 5,0 2,0 9 5 NW 10
30.05.2020 03:00:00 4,0 2,0 8 4 NW 10
30.05.2020 02:00:00 4,0 2,0 9 5 WNW 10
30.05.2020 01:00:00 5,0 2,0 9 5 W 10
30.05.2020 00:00:00 8,0 2,0 8 4 NNW 10
29.05.2020 23:00:00 9,0 2,0 15 8 NNW 10
29.05.2020 22:00:00 10,0 2,0 16 9 NW 10
29.05.2020 21:00:00 10,0 2,0 18 10 NW 10
29.05.2020 20:00:00 11,0 1,0 18 10 NW 10
29.05.2020 19:00:00 12,0 1,0 18 10 NNW 10
29.05.2020 18:00:00 12,0 1,0 18 10 NNW 10
29.05.2020 17:00:00 12,0 2,0 16 9 NW 10
29.05.2020 16:00:00 12,0 2,0 13 7 NNW 10
29.05.2020 15:00:00 13,0 1,0 16 9 NW 10
29.05.2020 14:00:00 12,0 1,0 13 7 NW 10
29.05.2020 13:00:00 12,0 1,0 18 10 W 10
29.05.2020 12:00:00 11,0 1,0 16 9 W 10
29.05.2020 11:00:00 10,0 2,0 15 8 W 10
29.05.2020 10:00:00 8,0 3,0 16 9 WSW 10
29.05.2020 09:00:00 8,0 3,0 15 8 SW 10
29.05.2020 08:00:00 8,0 2,0 13 7 SW 10
29.05.2020 07:00:00 8,0 2,0 11 6 WSW 10
29.05.2020 06:00:00 7,0 1,0 9 5 SW 10
29.05.2020 05:00:00 7,0 1,0 8 4 SW 10
29.05.2020 04:00:00 6,0 1,0 8 4 SW 10
29.05.2020 03:00:00 5,0 1,0 4 2 - 10
29.05.2020 02:00:00 4,0 2,0 5 3 WSW 10
29.05.2020 01:00:00 5,0 1,0 5 3 WSW 10
29.05.2020 00:00:00 6,0 1,0 8 4 SW 10
28.05.2020 23:00:00 7,0 0,0 8 4 W 10
28.05.2020 22:00:00 9,0 2,0 8 4 WSW 10
28.05.2020 21:00:00 10,0 -1,0 5 3 NNW 10
28.05.2020 20:00:00 12,0 0,0 11 6 N 10
28.05.2020 19:00:00 12,0 -1,0 15 8 NW 10
28.05.2020 18:00:00 13,0 -2,0 26 14 WNW 10
28.05.2020 17:00:00 12,0 -2,0 21 11 W 10
28.05.2020 16:00:00 13,0 -2,0 21 11 WNW 10
28.05.2020 15:00:00 13,0 -2,0 26 14 W 10
28.05.2020 14:00:00 12,0 -2,0 16 9 W 10
28.05.2020 13:00:00 13,0 -3,0 22 12 WSW 10
28.05.2020 12:00:00 12,0 -2,0 21 11 W 10
28.05.2020 11:00:00 11,0 -1,0 16 9 W 10
28.05.2020 10:00:00 11,0 -2,0 11 6 W 10
28.05.2020 09:00:00 10,0 -1,0 18 10 WNW 10
28.05.2020 08:00:00 9,0 -1,0 15 8 WNW 10
28.05.2020 07:00:00 8,0 -2,0 16 9 W 10
28.05.2020 06:00:00 7,0 -1,0 13 7 W 10
28.05.2020 05:00:00 4,0 -2,0 13 7 W 10
28.05.2020 04:00:00 5,0 0,0 8 4 WSW 10
28.05.2020 03:00:00 4,0 -1,0 5 3 WSW 10
28.05.2020 02:00:00 3,0 -2,0 9 5 WNW 10
28.05.2020 01:00:00 6,0 -1,0 9 5 W 10
28.05.2020 00:00:00 7,0 -2,0 15 8 WNW 10
27.05.2020 23:00:00 8,0 0,0 15 8 W 10

tt = temperature
td = dewpoint
ff = wind speed
dd = wind direction
vv = visibility

Next stations